createdAt,value
2022-08-14T00:01:11.594Z,6.3
2022-08-14T00:04:00.786Z,6.8
2022-08-14T00:06:50.029Z,6
2022-08-14T00:09:55.291Z,6.4
2022-08-14T00:12:48.039Z,5.8
2022-08-14T00:15:44.384Z,5.3
2022-08-14T00:19:18.763Z,5.4
2022-08-14T00:22:07.610Z,5.7
2022-08-14T00:24:56.948Z,5.7
2022-08-14T00:27:44.779Z,5.6
2022-08-14T00:30:37.019Z,5.9
2022-08-14T00:33:51.613Z,5.1
2022-08-14T00:36:48.434Z,5.3
2022-08-14T00:39:36.280Z,5
2022-08-14T00:42:55.712Z,5.3
2022-08-14T00:45:51.656Z,5.4
2022-08-14T00:48:40.767Z,5.6
2022-08-14T00:51:36.800Z,5.8
2022-08-14T00:54:26.612Z,5.2
2022-08-14T00:57:15.659Z,5
2022-08-14T01:00:05.804Z,5.3
2022-08-14T01:03:23.502Z,5
2022-08-14T01:06:14.325Z,5.4
2022-08-14T01:09:02.864Z,5
2022-08-14T01:12:02.538Z,5.1
2022-08-14T01:14:51.481Z,4.8
2022-08-14T01:17:43.994Z,5.3
2022-08-14T01:21:05.421Z,4.6
2022-08-14T01:23:59.701Z,5.3
2022-08-14T01:26:52.142Z,4.8
2022-08-14T01:30:03.767Z,4.7
2022-08-14T01:32:53.136Z,5.1
2022-08-14T01:36:03.535Z,4.7
2022-08-14T01:38:54.677Z,4.3
2022-08-14T01:41:43.363Z,4.3
2022-08-14T01:44:41.262Z,4.5
2022-08-14T01:47:33.649Z,5
2022-08-14T01:50:26.659Z,4.8
2022-08-14T01:53:14.698Z,4.5
2022-08-14T01:56:02.798Z,4.5
2022-08-14T01:58:57.642Z,4.6
2022-08-14T02:01:57.811Z,4.2
2022-08-14T02:04:55.414Z,5.1
2022-08-14T02:07:55.592Z,4.9
2022-08-14T02:10:57.027Z,4.5
2022-08-14T02:14:17.129Z,4.3
2022-08-14T02:17:19.949Z,5
2022-08-14T02:20:10.621Z,4.9
2022-08-14T02:22:58.654Z,4.3
2022-08-14T02:25:54.708Z,4.7
2022-08-14T02:28:57.728Z,4.6
2022-08-14T02:31:50.858Z,4.5
2022-08-14T02:34:41.975Z,4.5
2022-08-14T02:37:47.204Z,4.7
2022-08-14T02:40:35.511Z,4.5
2022-08-14T02:43:23.988Z,4.1
2022-08-14T02:46:20.571Z,4.8
2022-08-14T02:49:15.478Z,4.3
2022-08-14T02:52:03.366Z,4.2
2022-08-14T02:55:15.695Z,4.9
2022-08-14T02:58:08.098Z,5.3
2022-08-14T03:00:57.349Z,4.9
2022-08-14T03:03:45.425Z,5
2022-08-14T03:06:57.501Z,4.4
2022-08-14T03:10:25.692Z,4.6
2022-08-14T03:13:19.775Z,4.8
2022-08-14T03:16:09.331Z,5
2022-08-14T03:19:11.790Z,5.2
2022-08-14T03:21:59.402Z,4.3
2022-08-14T03:24:47.754Z,4.7
2022-08-14T03:27:48.390Z,5
2022-08-14T03:30:48.423Z,4.4
2022-08-14T03:33:38.065Z,5.2
2022-08-14T03:37:51.539Z,4.2
2022-08-14T03:42:05.265Z,5
2022-08-14T03:45:18.634Z,5.4
2022-08-14T03:48:30.346Z,5.4
2022-08-14T03:51:18.937Z,5.4
2022-08-14T03:54:07.585Z,5.3
2022-08-14T03:56:57.279Z,5.8
2022-08-14T03:59:46.558Z,5.3
2022-08-14T04:02:37.682Z,5.9
2022-08-14T04:05:38.128Z,5.1
2022-08-14T04:08:31.783Z,5.3
2022-08-14T04:11:21.331Z,5.9
2022-08-14T04:14:09.756Z,5.5
2022-08-14T04:17:02.948Z,5.5
2022-08-14T04:19:50.633Z,5.8
2022-08-14T04:22:38.184Z,5.4
2022-08-14T04:25:30.471Z,5.8
2022-08-14T04:29:07.189Z,5.9
2022-08-14T04:32:59.108Z,5.7
2022-08-14T04:35:56.915Z,5.7
2022-08-14T04:38:47.057Z,5.9
2022-08-14T04:42:10.503Z,5.5
2022-08-14T04:45:33.481Z,6.2
2022-08-14T04:48:38.725Z,6.3
2022-08-14T04:51:30.195Z,5.7
2022-08-14T04:54:34.563Z,5.7
2022-08-14T04:57:22.872Z,6.3
2022-08-14T05:00:15.979Z,6
2022-08-14T05:03:07.459Z,5.9
2022-08-14T05:05:56.991Z,5.6
2022-08-14T05:08:56.700Z,6.8
2022-08-14T05:11:45.153Z,6
2022-08-14T05:14:46.478Z,6.6
2022-08-14T05:17:44.311Z,5.7
2022-08-14T05:21:54.521Z,6
2022-08-14T05:24:44.446Z,5.8
2022-08-14T05:27:33.941Z,6
2022-08-14T05:30:21.545Z,6.6
2022-08-14T05:33:09.214Z,6.6
2022-08-14T05:35:57.674Z,5.5
2022-08-14T05:38:47.345Z,6.3
2022-08-14T05:41:53.673Z,6.5
2022-08-14T05:44:42.033Z,6.8
2022-08-14T05:47:39.421Z,6.7
2022-08-14T05:50:29.256Z,5.6
2022-08-14T05:53:18.637Z,5.6
2022-08-14T05:56:11.510Z,6.1
2022-08-14T05:59:00.611Z,6.6
2022-08-14T06:01:48.511Z,5.5
2022-08-14T06:04:38.800Z,6.2
2022-08-14T06:07:32.757Z,6.4
2022-08-14T06:10:21.741Z,5.9
2022-08-14T06:13:11.461Z,5.6
2022-08-14T06:15:59.933Z,5.9
2022-08-14T06:18:52.313Z,5.7
2022-08-14T06:21:40.673Z,5.7
2022-08-14T06:24:30.674Z,5.8
2022-08-14T06:27:22.565Z,5.3
2022-08-14T06:30:10.860Z,5
2022-08-14T06:33:06.771Z,5.5
2022-08-14T06:35:54.597Z,5.3
2022-08-14T06:38:43.041Z,5.7
2022-08-14T06:41:56.597Z,5.4
2022-08-14T06:44:47.701Z,6.2
2022-08-14T06:47:35.485Z,5.7
2022-08-14T06:50:28.217Z,5.4
2022-08-14T06:53:17.753Z,5.5
2022-08-14T06:56:05.842Z,5
2022-08-14T06:58:53.534Z,5.3
2022-08-14T07:01:43.680Z,5.3
2022-08-14T07:05:05.534Z,5.5
2022-08-14T07:08:25.823Z,6
2022-08-14T07:11:15.713Z,6.1
2022-08-14T07:14:03.412Z,6.5
2022-08-14T07:16:51.351Z,5.5
2022-08-14T07:19:38.977Z,5.9
2022-08-14T07:22:43.018Z,5.8
2022-08-14T07:25:43.797Z,5.5
2022-08-14T07:28:32.409Z,5.4
2022-08-14T07:31:22.603Z,5.5
2022-08-14T07:34:11.377Z,5.5
2022-08-14T07:37:00.990Z,5.8
2022-08-14T07:39:50.105Z,5.7
2022-08-14T07:42:39.338Z,6.1
2022-08-14T07:45:32.029Z,7.2
2022-08-14T07:48:19.741Z,6.1
2022-08-14T07:51:13.113Z,6.2
2022-08-14T07:54:00.930Z,6.3
2022-08-14T07:56:53.928Z,5.3
2022-08-14T07:59:46.906Z,5.6
2022-08-14T08:02:36.680Z,5.8
2022-08-14T08:05:29.978Z,6.4
2022-08-14T08:08:27.267Z,5.9
2022-08-14T08:11:16.469Z,6.2
2022-08-14T08:14:05.191Z,5.8
2022-08-14T08:16:58.478Z,4.9
2022-08-14T08:19:46.506Z,4.9
2022-08-14T08:22:39.194Z,5.1
2022-08-14T08:25:27.751Z,5.2
2022-08-14T08:28:25.107Z,5.4
2022-08-14T08:31:13.909Z,4.8
2022-08-14T08:34:01.832Z,5.1
2022-08-14T08:36:51.193Z,4.9
2022-08-14T08:40:01.142Z,5.5
2022-08-14T08:42:53.313Z,4.8
2022-08-14T08:45:45.691Z,4.6
2022-08-14T08:48:46.700Z,4.4
2022-08-14T08:51:43.189Z,4.5
2022-08-14T08:54:31.238Z,4.5
2022-08-14T08:57:21.546Z,4.3
2022-08-14T09:00:09.985Z,4.1
2022-08-14T09:03:20.308Z,4.4
2022-08-14T09:07:00.591Z,4.3
2022-08-14T09:10:00.529Z,4.4
2022-08-14T09:12:51.494Z,4.4
2022-08-14T09:15:42.534Z,4.3
2022-08-14T09:18:32.464Z,4.1
2022-08-14T09:21:21.044Z,3.8
2022-08-14T09:24:28.745Z,4.2
2022-08-14T09:27:22.821Z,4.5
2022-08-14T09:30:30.724Z,4.3
2022-08-14T09:33:24.296Z,3.8
2022-08-14T09:36:33.465Z,3.9
2022-08-14T09:39:33.812Z,4
2022-08-14T09:42:45.206Z,4.3
2022-08-14T09:45:53.012Z,3.9
2022-08-14T09:48:43.533Z,3.8
2022-08-14T09:51:51.657Z,4.2
2022-08-14T09:54:52.183Z,4.3
2022-08-14T09:57:42.550Z,4.8
2022-08-14T10:00:31.434Z,4.4
2022-08-14T10:03:29.764Z,4.6
2022-08-14T10:06:22.536Z,4.2
2022-08-14T10:09:16.877Z,4.6
2022-08-14T10:12:05.088Z,4.6
2022-08-14T10:14:54.596Z,4.7
2022-08-14T10:17:42.405Z,5.7
2022-08-14T10:20:40.216Z,5.5
2022-08-14T10:23:39.997Z,5.4
2022-08-14T10:26:30.175Z,5.1
2022-08-14T10:29:23.465Z,5.5
2022-08-14T10:32:36.388Z,5.3
2022-08-14T10:35:31.145Z,5.5
2022-08-14T10:38:29.478Z,6
2022-08-14T10:41:20.154Z,5.5
2022-08-14T10:44:08.229Z,6.5
2022-08-14T10:47:41.429Z,7
2022-08-14T10:51:02.144Z,6.5
2022-08-14T10:53:53.179Z,5.9
2022-08-14T10:56:46.465Z,6.8
2022-08-14T10:59:39.113Z,6.9
2022-08-14T11:02:44.581Z,6.6
2022-08-14T11:05:45.590Z,6.4
2022-08-14T11:08:35.846Z,6.7
2022-08-14T11:11:23.435Z,6
2022-08-14T11:14:12.258Z,6.8
2022-08-14T11:17:02.539Z,6.7
2022-08-14T11:19:53.833Z,7
2022-08-14T11:22:52.705Z,7.2
2022-08-14T11:25:53.144Z,7.1
2022-08-14T11:28:47.731Z,8.3
2022-08-14T11:31:39.107Z,8
2022-08-14T11:34:32.266Z,9
2022-08-14T11:37:32.628Z,7.3
2022-08-14T11:40:36.543Z,8.2
2022-08-14T11:43:29.643Z,8
2022-08-14T11:46:30.304Z,7.8
2022-08-14T11:49:26.640Z,8
2022-08-14T11:52:23.439Z,8.7
2022-08-14T11:55:22.350Z,7.8
2022-08-14T11:58:24.222Z,7.7
2022-08-14T12:01:13.696Z,7.8
2022-08-14T12:04:02.677Z,8.2
2022-08-14T12:06:58.230Z,8.1
2022-08-14T12:09:48.231Z,8.2
2022-08-14T12:12:44.234Z,8.2
2022-08-14T12:15:32.263Z,8.8
2022-08-14T12:18:20.820Z,8.3
2022-08-14T12:21:19.452Z,8.6
2022-08-14T12:24:36.012Z,7.9
2022-08-14T12:27:27.214Z,8.2
2022-08-14T12:30:23.410Z,8.3
2022-08-14T12:33:18.049Z,8.3
2022-08-14T12:36:11.618Z,8.1
2022-08-14T12:39:06.310Z,8.4
2022-08-14T12:42:05.087Z,8.4
2022-08-14T12:44:55.659Z,8.2
2022-08-14T12:47:44.646Z,8.3
2022-08-14T12:50:49.838Z,7.6
2022-08-14T12:53:38.563Z,8.1
2022-08-14T12:56:32.766Z,8.7
2022-08-14T12:59:21.909Z,8.5
2022-08-14T13:02:17.773Z,8.9
2022-08-14T13:05:08.062Z,9.9
2022-08-14T13:07:59.321Z,10.2
2022-08-14T13:10:52.536Z,9.9
2022-08-14T13:13:44.576Z,10.2
2022-08-14T13:16:38.088Z,10.1
2022-08-14T13:19:28.185Z,10.6
2022-08-14T13:22:29.058Z,10
2022-08-14T13:25:22.146Z,9.5
2022-08-14T13:28:12.474Z,10.9
2022-08-14T13:31:23.987Z,10
2022-08-14T13:34:20.130Z,10.2
2022-08-14T13:37:09.306Z,10.7
2022-08-14T13:39:58.261Z,11.4
2022-08-14T13:42:48.300Z,11.4
2022-08-14T13:45:59.754Z,11
2022-08-14T13:48:48.559Z,12.5
2022-08-14T13:51:37.094Z,12.8
2022-08-14T13:54:30.654Z,11.5
2022-08-14T13:57:21.478Z,10.5
2022-08-14T14:00:21.701Z,10.9
2022-08-14T14:03:22.946Z,10.2
2022-08-14T14:06:11.305Z,9.4
2022-08-14T14:09:01.006Z,9.8
2022-08-14T14:11:52.870Z,9.7
2022-08-14T14:14:51.497Z,9.5
2022-08-14T14:17:44.340Z,9.5
2022-08-14T14:20:34.336Z,8.5
2022-08-14T14:23:28.271Z,9.6
2022-08-14T14:26:23.133Z,9.1
2022-08-14T14:29:11.778Z,9.1
2022-08-14T14:32:00.578Z,7.9
2022-08-14T14:34:49.260Z,9.3
2022-08-14T14:37:38.490Z,9
2022-08-14T14:40:52.393Z,9.1
2022-08-14T14:43:46.278Z,8.8
2022-08-14T14:46:37.326Z,8.8
2022-08-14T14:49:41.790Z,9
2022-08-14T14:52:41.402Z,8.9
2022-08-14T14:55:29.123Z,9.9
2022-08-14T14:58:42.533Z,9.2
2022-08-14T15:01:34.116Z,10.3
2022-08-14T15:04:22.675Z,9
2022-08-14T15:07:12.331Z,9.3
2022-08-14T15:10:01.536Z,9.7
2022-08-14T15:12:57.640Z,10.1
2022-08-14T15:15:45.899Z,9.6
2022-08-14T15:18:38.469Z,10
2022-08-14T15:21:30.794Z,10
2022-08-14T15:24:26.674Z,9.6
2022-08-14T15:27:15.015Z,9.5
2022-08-14T15:30:24.151Z,9
2022-08-14T15:33:19.993Z,8.7
2022-08-14T15:36:43.734Z,7.7
2022-08-14T15:39:35.349Z,7.5
2022-08-14T15:42:25.142Z,6.7
2022-08-14T15:45:14.966Z,7.2
2022-08-14T15:48:03.639Z,6.9
2022-08-14T15:50:53.478Z,6.7
2022-08-14T15:53:41.722Z,7.5
2022-08-14T15:56:43.256Z,6.8
2022-08-14T15:59:31.270Z,6.9
2022-08-14T16:03:35.114Z,7.2
2022-08-14T16:06:25.470Z,6.6
2022-08-14T16:09:15.002Z,7
2022-08-14T16:12:03.232Z,7.9
2022-08-14T16:14:51.589Z,7.3
2022-08-14T16:17:43.863Z,6.9
2022-08-14T16:20:41.983Z,6.3
2022-08-14T16:23:41.241Z,6.6
2022-08-14T16:26:33.054Z,6.9
2022-08-14T16:29:21.218Z,6.8
2022-08-14T16:32:33.241Z,6.5
2022-08-14T16:35:24.707Z,7.1
2022-08-14T16:38:19.778Z,8.1
2022-08-14T16:41:37.025Z,7
2022-08-14T16:44:33.823Z,7.4
2022-08-14T16:47:24.553Z,8.6
2022-08-14T16:50:43.281Z,7.8
2022-08-14T16:53:35.805Z,7.5
2022-08-14T16:56:25.518Z,7.3
2022-08-14T16:59:16.649Z,9
2022-08-14T17:02:08.689Z,7.6
2022-08-14T17:04:59.458Z,7.1
2022-08-14T17:08:28.332Z,7
2022-08-14T17:11:28.870Z,6.2
2022-08-14T17:14:38.002Z,7.5
2022-08-14T17:17:50.069Z,6.8
2022-08-14T17:21:00.220Z,7.2
2022-08-14T17:24:56.789Z,7.7
2022-08-14T17:27:51.800Z,7.8
2022-08-14T17:30:57.211Z,7.8
2022-08-14T17:33:52.480Z,7.7
2022-08-14T17:36:43.286Z,8.2
2022-08-14T17:39:40.033Z,8.3
2022-08-14T17:46:58.129Z,8.5
2022-08-14T17:49:52.857Z,8.8
2022-08-14T17:52:42.776Z,8.9
2022-08-14T17:56:01.110Z,10.7
2022-08-14T17:58:51.808Z,8.8
2022-08-14T18:01:40.609Z,9.2
2022-08-14T18:04:33.537Z,8.7
2022-08-14T18:07:59.212Z,9.4
2022-08-14T18:11:24.734Z,8.8
2022-08-14T18:14:48.950Z,9.4
2022-08-14T18:17:40.724Z,8.6
2022-08-14T18:21:23.626Z,10.1
2022-08-14T18:24:31.815Z,9.3
2022-08-14T18:27:22.866Z,9.7
2022-08-14T18:30:33.374Z,12
2022-08-14T18:33:28.781Z,9.7
2022-08-14T18:36:47.516Z,9.3
2022-08-14T18:40:02.924Z,9.3
2022-08-14T18:43:25.161Z,9
2022-08-14T18:46:59.808Z,10.6
2022-08-14T18:50:25.995Z,9.6
2022-08-14T18:53:17.071Z,9.7
2022-08-14T18:56:09.702Z,9.5
2022-08-14T18:58:58.556Z,9.1
2022-08-14T19:01:51.758Z,9.6
2022-08-14T19:05:27.726Z,9.8
2022-08-14T19:08:42.537Z,10.1
2022-08-14T19:11:32.597Z,10.1
2022-08-14T19:14:36.086Z,12.1
2022-08-14T19:17:41.541Z,11.3
2022-08-14T19:20:30.534Z,10.1
2022-08-14T19:23:42.343Z,11
2022-08-14T19:26:54.030Z,9.7
2022-08-14T19:30:01.726Z,9.8
2022-08-14T19:33:08.903Z,10.9
2022-08-14T19:37:04.522Z,10.5
2022-08-14T19:39:54.745Z,11.1
2022-08-14T19:42:47.278Z,10.9
2022-08-14T19:45:36.994Z,11.4
2022-08-14T19:48:24.582Z,10.8
2022-08-14T19:51:12.791Z,12.8
2022-08-14T19:54:00.498Z,11.8
2022-08-14T19:56:51.293Z,11.9
2022-08-14T19:59:57.357Z,12
2022-08-14T20:02:53.610Z,11.3
2022-08-14T20:05:48.115Z,9.9
2022-08-14T20:11:00.236Z,12.3
2022-08-14T20:14:10.917Z,12.5
2022-08-14T20:17:06.422Z,11.3
2022-08-14T20:20:01.358Z,12.4
2022-08-14T20:23:11.397Z,11.7
2022-08-14T20:26:03.218Z,12.2
2022-08-14T20:29:06.849Z,11.8
2022-08-14T20:32:14.763Z,11.3
2022-08-14T20:35:02.335Z,10.6
2022-08-14T20:38:28.577Z,10.8
2022-08-14T20:41:19.871Z,11.2
2022-08-14T20:44:10.241Z,11.3
2022-08-14T20:47:50.574Z,11
2022-08-14T20:50:45.337Z,11.8
2022-08-14T20:53:33.225Z,12.4
2022-08-14T20:56:28.460Z,11.2
2022-08-14T20:59:21.135Z,11.5
2022-08-14T21:02:28.426Z,12.2
2022-08-14T21:05:21.689Z,12.2
2022-08-14T21:08:25.709Z,11.7
2022-08-14T21:11:17.889Z,13.3
2022-08-14T21:14:09.413Z,13
2022-08-14T21:17:12.844Z,13
2022-08-14T21:20:00.392Z,13.8
2022-08-14T21:23:14.262Z,14
2022-08-14T21:26:03.642Z,13.2
2022-08-14T21:28:53.629Z,15.1
2022-08-14T21:31:42.475Z,13.9
2022-08-14T21:34:32.645Z,14.1
2022-08-14T21:37:21.303Z,14.1
2022-08-14T21:40:35.345Z,15.1
2022-08-14T21:43:33.190Z,15.2
2022-08-14T21:46:21.008Z,15.2
2022-08-14T21:49:09.157Z,14.1
2022-08-14T21:52:51.347Z,13.4
2022-08-14T21:55:49.036Z,14.5
2022-08-14T21:58:52.394Z,14.9
2022-08-14T22:02:00.195Z,14.8
2022-08-14T22:04:51.953Z,14.7
2022-08-14T22:07:44.427Z,14.4
2022-08-14T22:10:33.492Z,14.6
2022-08-14T22:13:21.765Z,14.3
2022-08-14T22:17:02.128Z,14.4
2022-08-14T22:20:01.347Z,12.9
2022-08-14T22:22:57.085Z,15.2
2022-08-14T22:25:49.261Z,15.7
2022-08-14T22:28:38.140Z,15.9
2022-08-14T22:31:35.095Z,14.5
2022-08-14T22:34:27.473Z,15.3
2022-08-14T22:37:17.134Z,16.5
2022-08-14T22:40:50.774Z,16.6
2022-08-14T22:43:59.880Z,15.9
2022-08-14T22:46:54.542Z,16
2022-08-14T22:50:29.038Z,16.5
2022-08-14T22:53:21.793Z,15.9
2022-08-14T22:56:20.677Z,17.1
2022-08-14T22:59:11.241Z,16.9
2022-08-14T23:02:03.589Z,17.2
2022-08-14T23:04:57.266Z,17
2022-08-14T23:08:58.411Z,17.3
2022-08-14T23:11:49.117Z,17.5
2022-08-14T23:14:36.800Z,17.9
2022-08-14T23:17:38.812Z,17.5
2022-08-14T23:20:29.219Z,17.2
2022-08-14T23:23:22.874Z,17.5
2022-08-14T23:26:48.737Z,17.8
2022-08-14T23:29:39.670Z,18
2022-08-14T23:32:27.428Z,18.1
2022-08-14T23:35:20.176Z,16.1
2022-08-14T23:38:29.803Z,18.4
2022-08-14T23:41:19.245Z,17.2
2022-08-14T23:44:08.112Z,18.1
2022-08-14T23:47:03.486Z,17.7
2022-08-14T23:50:00.869Z,17
2022-08-14T23:53:07.608Z,17.3
2022-08-14T23:56:06.533Z,16.8
2022-08-14T23:58:58.040Z,17.9
